createdAt,value
2018-10-02T00:00:24.041Z,100434.56
2018-10-02T00:02:52.751Z,100428.86
2018-10-02T00:05:21.369Z,100432.80
2018-10-02T00:07:49.988Z,100434.11
2018-10-02T00:10:18.667Z,100438.03
2018-10-02T00:12:52.643Z,100432.38
2018-10-02T00:15:21.245Z,100428.88
2018-10-02T00:17:49.982Z,100429.75
2018-10-02T00:20:18.535Z,100422.77
2018-10-02T00:22:47.132Z,100430.19
2018-10-02T00:25:15.709Z,100418.38
2018-10-02T00:27:44.396Z,100425.80
2018-10-02T00:30:12.974Z,100424.06
2018-10-02T00:32:41.490Z,100418.84
2018-10-02T00:35:10.093Z,100415.77
2018-10-02T00:37:38.666Z,100410.53
2018-10-02T00:40:07.209Z,100413.60
2018-10-02T00:42:35.840Z,100408.80
2018-10-02T00:45:04.370Z,100408.77
2018-10-02T00:47:32.898Z,100400.48
2018-10-02T00:50:01.475Z,100395.67
2018-10-02T00:52:30.147Z,100390.42
2018-10-02T00:54:58.730Z,100403.09
2018-10-02T00:57:27.363Z,100395.26
2018-10-02T00:59:55.931Z,100391.73
2018-10-02T01:02:24.430Z,100390.01
2018-10-02T01:04:53.124Z,100388.67
2018-10-02T01:07:21.703Z,100385.61
2018-10-02T01:09:50.240Z,100393.92
2018-10-02T01:12:19.062Z,100397.85
2018-10-02T01:14:47.720Z,100387.81
2018-10-02T01:17:16.302Z,100388.68
2018-10-02T01:19:44.997Z,100393.92
2018-10-02T01:22:13.549Z,100387.39
2018-10-02T01:24:42.159Z,100286.11
2018-10-02T01:27:10.767Z,100397.88
2018-10-02T01:29:39.342Z,100385.20
2018-10-02T01:32:07.949Z,100386.51
2018-10-02T01:34:36.514Z,100384.77
2018-10-02T01:37:05.197Z,100392.19
2018-10-02T01:39:33.780Z,100388.69
2018-10-02T01:42:02.328Z,100389.55
2018-10-02T01:44:30.931Z,100388.70
2018-10-02T01:46:59.596Z,100387.81
2018-10-02T01:49:28.283Z,100384.75
2018-10-02T01:51:57.008Z,100383.02
2018-10-02T01:54:25.643Z,100375.58
2018-10-02T01:56:54.411Z,100371.67
2018-10-02T01:59:23.238Z,100364.67
2018-10-02T02:01:52.001Z,100366.85
2018-10-02T02:04:20.806Z,100364.67
2018-10-02T02:06:49.552Z,100361.19
2018-10-02T02:09:18.435Z,100347.62
2018-10-02T02:11:47.260Z,100353.77
2018-10-02T02:14:16.080Z,100355.94
2018-10-02T02:16:44.778Z,100359.01
2018-10-02T02:19:13.464Z,100352.89
2018-10-02T02:21:42.267Z,100355.50
2018-10-02T02:24:11.061Z,100350.70
2018-10-02T02:26:39.767Z,100344.60
2018-10-02T02:29:08.630Z,100345.05
2018-10-02T02:31:37.380Z,100352.91
2018-10-02T02:34:06.172Z,100359.44
2018-10-02T02:36:35.036Z,100358.56
2018-10-02T02:39:07.640Z,100349.41
2018-10-02T02:41:36.337Z,100335.84
2018-10-02T02:44:05.286Z,100334.55
2018-10-02T02:46:34.199Z,100326.66
2018-10-02T02:49:08.046Z,100315.77
2018-10-02T02:51:36.833Z,100324.52
2018-10-02T02:54:05.640Z,100320.58
2018-10-02T02:56:34.404Z,100321.03
2018-10-02T02:59:03.053Z,100314.92
2018-10-02T03:01:31.785Z,100318.41
2018-10-02T03:04:00.859Z,100315.78
2018-10-02T03:06:29.451Z,100306.59
2018-10-02T03:08:58.123Z,100303.56
2018-10-02T03:11:26.943Z,100291.77
2018-10-02T03:13:55.663Z,100288.70
2018-10-02T03:16:24.347Z,100291.33
2018-10-02T03:18:53.324Z,100289.13
2018-10-02T03:21:22.231Z,100280.41
2018-10-02T03:23:50.982Z,100282.16
2018-10-02T03:26:19.861Z,100276.05
2018-10-02T03:28:48.764Z,100272.98
2018-10-02T03:31:17.513Z,100265.13
2018-10-02T03:33:46.249Z,100271.70
2018-10-02T03:36:14.899Z,100280.41
2018-10-02T03:38:44.272Z,100273.44
2018-10-02T03:41:13.152Z,100262.53
2018-10-02T03:43:41.957Z,100259.89
2018-10-02T03:46:10.724Z,100264.27
2018-10-02T03:48:39.558Z,100268.19
2018-10-02T03:51:08.212Z,100262.52
2018-10-02T03:53:37.127Z,100257.27
2018-10-02T03:56:05.899Z,100257.25
2018-10-02T03:58:34.684Z,100254.66
2018-10-02T04:01:03.384Z,100248.53
2018-10-02T04:03:32.301Z,100255.09
2018-10-02T04:06:01.083Z,100242.88
2018-10-02T04:08:29.892Z,100247.22
2018-10-02T04:10:58.613Z,100251.58
2018-10-02T04:13:27.192Z,100243.28
2018-10-02T04:15:55.692Z,100237.63
2018-10-02T04:18:24.357Z,100241.55
2018-10-02T04:20:53.077Z,100224.09
2018-10-02T04:23:21.628Z,100222.34
2018-10-02T04:25:50.176Z,100214.47
2018-10-02T04:28:18.777Z,100212.30
2018-10-02T04:30:47.364Z,100227.15
2018-10-02T04:33:15.957Z,100210.53
2018-10-02T04:35:44.486Z,100190.43
2018-10-02T04:38:13.081Z,100025.30
2018-10-02T04:40:41.675Z,100176.02
2018-10-02T04:43:10.345Z,100169.92
2018-10-02T04:45:38.984Z,100171.64
2018-10-02T04:48:07.684Z,100166.43
2018-10-02T04:50:36.257Z,100168.61
2018-10-02T04:53:04.873Z,100165.58
2018-10-02T04:55:33.628Z,100165.57
2018-10-02T04:58:02.203Z,100166.00
2018-10-02T05:00:30.888Z,100170.81
2018-10-02T05:02:59.582Z,100175.19
2018-10-02T05:05:28.171Z,100185.64
2018-10-02T05:07:56.799Z,100190.90
2018-10-02T05:10:25.352Z,100186.52
2018-10-02T05:12:54.017Z,100176.48
2018-10-02T05:15:22.742Z,100179.95
2018-10-02T05:17:51.352Z,100171.67
2018-10-02T05:20:19.943Z,100177.78
2018-10-02T05:22:48.518Z,100164.66
2018-10-02T05:25:17.419Z,100168.16
2018-10-02T05:27:46.311Z,100158.55
2018-10-02T05:30:15.596Z,100158.12
2018-10-02T05:32:44.350Z,100162.50
2018-10-02T05:35:13.514Z,100166.41
2018-10-02T05:37:42.217Z,100160.28
2018-10-02T05:40:11.042Z,100157.64
2018-10-02T05:42:40.026Z,100150.21
2018-10-02T05:45:09.840Z,100138.42
2018-10-02T05:47:39.858Z,100139.73
2018-10-02T05:50:08.735Z,100150.23
2018-10-02T05:52:37.572Z,100158.07
2018-10-02T05:55:06.414Z,100148.91
2018-10-02T05:57:35.900Z,100151.05
2018-10-02T06:00:04.853Z,100143.16
2018-10-02T06:02:33.718Z,100147.53
2018-10-02T06:05:02.598Z,100149.27
2018-10-02T06:07:31.407Z,100143.14
2018-10-02T06:10:00.334Z,100137.47
2018-10-02T06:12:29.144Z,100132.25
2018-10-02T06:14:57.962Z,100126.13
2018-10-02T06:17:26.624Z,100123.08
2018-10-02T06:19:55.488Z,100121.77
2018-10-02T06:22:24.339Z,100141.00
2018-10-02T06:24:52.981Z,100106.49
2018-10-02T06:27:21.703Z,100095.61
2018-10-02T06:29:50.385Z,100084.24
2018-10-02T06:32:19.167Z,100088.17
2018-10-02T06:34:47.719Z,100085.55
2018-10-02T06:37:16.738Z,100093.39
2018-10-02T06:39:45.626Z,100086.81
2018-10-02T06:42:14.745Z,100085.50
2018-10-02T06:44:43.402Z,100090.72
2018-10-02T06:47:12.716Z,100096.84
2018-10-02T06:49:41.425Z,100098.18
2018-10-02T06:52:10.165Z,100104.25
2018-10-02T06:54:38.543Z,100112.12
2018-10-02T06:57:07.566Z,100102.51
2018-10-02T06:59:37.467Z,100085.50
2018-10-02T07:02:06.177Z,100085.93
2018-10-02T07:04:34.661Z,100090.72
2018-10-02T07:07:03.719Z,100099.48
2018-10-02T07:09:42.008Z,100085.92
2018-10-02T07:12:10.579Z,100078.95
2018-10-02T07:14:41.101Z,100072.85
2018-10-02T07:17:10.280Z,100064.08
2018-10-02T07:19:41.766Z,100064.11
2018-10-02T07:22:10.612Z,100057.06
2018-10-02T07:24:39.553Z,100057.95
2018-10-02T07:27:08.322Z,100058.83
2018-10-02T07:29:36.933Z,100068.44
2018-10-02T07:32:05.577Z,100047.06
2018-10-02T07:34:34.513Z,100048.38
2018-10-02T07:37:03.227Z,100040.52
2018-10-02T07:39:31.784Z,100044.02
2018-10-02T07:42:00.668Z,100047.95
2018-10-02T07:44:29.616Z,100040.94
2018-10-02T07:46:58.334Z,100053.59
2018-10-02T07:49:26.936Z,100046.16
2018-10-02T07:51:55.878Z,100043.99
2018-10-02T07:54:25.008Z,100050.55
2018-10-02T07:56:54.003Z,100059.26
2018-10-02T07:59:23.081Z,100059.26
2018-10-02T08:01:51.904Z,100057.06
2018-10-02T08:04:20.579Z,99938.59
2018-10-02T08:06:50.203Z,100047.89
2018-10-02T08:09:19.034Z,100059.66
2018-10-02T08:11:47.933Z,100062.34
2018-10-02T08:14:16.664Z,100067.61
2018-10-02T08:16:45.412Z,100074.59
2018-10-02T08:19:14.141Z,100057.13
2018-10-02T08:21:43.547Z,100059.75
2018-10-02T08:24:12.598Z,100041.83
2018-10-02T08:26:41.368Z,100042.31
2018-10-02T08:29:09.938Z,100077.74
2018-10-02T08:31:38.647Z,100063.34
2018-10-02T08:34:07.160Z,100065.55
2018-10-02T08:36:35.752Z,100055.52
2018-10-02T08:39:05.669Z,100049.83
2018-10-02T08:41:34.170Z,100061.14
2018-10-02T08:44:02.739Z,100065.05
2018-10-02T08:46:31.292Z,100071.65
2018-10-02T08:49:00.087Z,100066.01
2018-10-02T08:51:28.881Z,100060.77
2018-10-02T08:53:57.696Z,100057.27
2018-10-02T08:56:26.269Z,100059.88
2018-10-02T08:58:54.866Z,100053.77
2018-10-02T09:01:23.465Z,100056.81
2018-10-02T09:03:52.011Z,100058.06
2018-10-02T09:06:21.813Z,100051.91
2018-10-02T09:08:50.352Z,100053.20
2018-10-02T09:11:18.992Z,100035.24
2018-10-02T09:13:47.611Z,100023.87
2018-10-02T09:16:16.189Z,100010.27
2018-10-02T09:18:44.774Z,100019.44
2018-10-02T09:21:13.327Z,100018.59
2018-10-02T09:23:41.976Z,100017.32
2018-10-02T09:26:10.521Z,100010.73
2018-10-02T09:28:39.278Z,100023.87
2018-10-02T09:31:12.933Z,100022.95
2018-10-02T09:33:46.778Z,100018.52
2018-10-02T09:36:20.437Z,100018.45
2018-10-02T09:41:00.538Z,100021.91
2018-10-02T09:43:37.334Z,100023.53
2018-10-02T09:46:05.887Z,100019.52
2018-10-02T09:48:34.464Z,100014.17
2018-10-02T09:51:03.146Z,100028.93
2018-10-02T09:53:31.663Z,100013.52
2018-10-02T09:56:00.239Z,100011.62
2018-10-02T09:58:28.773Z,100019.39
2018-10-02T10:01:02.626Z,100020.66
2018-10-02T10:03:31.092Z,100019.29
2018-10-02T10:05:59.600Z,100008.37
2018-10-02T10:08:28.105Z,100022.80
2018-10-02T10:10:56.639Z,100019.29
2018-10-02T10:13:25.077Z,100014.40
2018-10-02T10:15:53.551Z,100014.38
2018-10-02T10:18:22.055Z,100006.56
2018-10-02T10:20:50.551Z,100001.16
2018-10-02T10:23:18.976Z,99999.75
2018-10-02T10:25:47.489Z,99996.03
2018-10-02T10:28:15.972Z,99992.86
2018-10-02T10:30:44.414Z,99984.41
2018-10-02T10:33:13.021Z,99989.20
2018-10-02T10:35:41.532Z,99988.43
2018-10-02T10:38:11.268Z,99977.09
2018-10-02T10:40:40.162Z,99977.56
2018-10-02T10:43:08.730Z,99977.21
2018-10-02T10:45:37.440Z,99978.53
2018-10-02T10:48:05.953Z,99978.06
2018-10-02T10:50:34.475Z,99977.64
2018-10-02T10:53:03.013Z,99970.23
2018-10-02T10:55:33.542Z,99986.08
2018-10-02T10:58:02.060Z,99987.59
2018-10-02T11:00:30.911Z,99969.55
2018-10-02T11:02:59.431Z,99960.41
2018-10-02T11:05:27.899Z,99961.80
2018-10-02T11:07:56.331Z,99968.31
2018-10-02T11:10:24.824Z,99966.16
2018-10-02T11:12:53.404Z,99972.23
2018-10-02T11:15:22.687Z,99957.30
2018-10-02T11:17:51.502Z,99957.70
2018-10-02T11:20:23.288Z,99962.47
2018-10-02T11:22:51.829Z,99969.47
2018-10-02T11:25:20.310Z,99969.05
2018-10-02T11:27:48.804Z,99965.55
2018-10-02T11:30:17.363Z,99974.67
2018-10-02T11:32:45.870Z,99965.40
2018-10-02T11:35:14.564Z,99960.95
2018-10-02T11:37:43.359Z,99959.99
2018-10-02T11:40:11.923Z,99963.00
2018-10-02T11:42:47.120Z,99962.09
2018-10-02T11:45:15.663Z,99951.98
2018-10-02T11:47:44.355Z,99941.90
2018-10-02T11:50:13.003Z,99950.66
2018-10-02T11:52:41.756Z,99942.35
2018-10-02T11:55:10.010Z,99937.45
2018-10-02T11:57:40.536Z,99524.93
2018-10-02T12:00:09.270Z,99924.22
2018-10-02T12:02:38.231Z,99930.30
2018-10-02T12:05:08.268Z,99933.36
2018-10-02T12:07:36.894Z,99932.84
2018-10-02T12:10:05.835Z,99928.30
2018-10-02T12:12:35.879Z,99933.55
2018-10-02T12:15:05.461Z,99932.56
2018-10-02T12:17:34.368Z,99926.97
2018-10-02T12:20:03.193Z,99937.55
2018-10-02T12:22:31.889Z,99936.66
2018-10-02T12:28:03.679Z,99565.73
2018-10-02T12:30:32.251Z,99919.41
2018-10-02T12:33:00.953Z,99916.23
2018-10-02T12:35:31.190Z,99907.00
2018-10-02T12:38:02.996Z,99903.97
2018-10-02T12:40:32.691Z,99897.81
2018-10-02T12:43:01.803Z,99912.59
2018-10-02T12:45:31.516Z,99906.34
2018-10-02T12:48:00.461Z,99895.33
2018-10-02T12:50:29.004Z,99907.91
2018-10-02T12:53:00.147Z,99907.01
2018-10-02T12:55:28.769Z,99900.83
2018-10-02T12:57:58.474Z,99892.86
2018-10-02T13:00:27.102Z,99900.72
2018-10-02T13:02:56.639Z,99902.43
2018-10-02T13:05:25.278Z,99902.45
2018-10-02T13:07:53.824Z,99900.23
2018-10-02T13:10:22.405Z,99903.28
2018-10-02T13:12:51.010Z,99901.92
2018-10-02T13:15:19.742Z,99905.00
2018-10-02T13:17:48.438Z,99906.76
2018-10-02T13:20:17.058Z,99901.40
2018-10-02T13:22:45.899Z,99908.72
2018-10-02T13:25:14.560Z,99913.06
2018-10-02T13:27:43.243Z,99909.92
2018-10-02T13:30:11.706Z,99906.78
2018-10-02T13:32:40.436Z,99919.84
2018-10-02T13:35:09.012Z,99913.21
2018-10-02T13:37:37.585Z,99907.91
2018-10-02T13:42:39.990Z,99879.74
2018-10-02T13:45:09.551Z,99908.85
2018-10-02T13:47:38.323Z,99915.00
2018-10-02T13:50:07.022Z,99919.77
2018-10-02T13:52:35.720Z,99914.84
2018-10-02T13:55:04.469Z,99920.09
2018-10-02T14:00:17.675Z,99930.63
2018-10-02T14:02:46.407Z,99932.36
2018-10-02T14:05:22.249Z,99941.05
2018-10-02T14:07:51.054Z,99936.19
2018-10-02T14:10:20.135Z,99939.58
2018-10-02T14:12:49.620Z,99931.16
2018-10-02T14:15:18.364Z,99935.02
2018-10-02T14:17:47.099Z,99924.36
2018-10-02T14:20:16.004Z,99922.01
2018-10-02T14:22:44.998Z,99914.55
2018-10-02T14:25:16.167Z,99919.70
2018-10-02T14:30:41.345Z,99927.13
2018-10-02T14:33:11.872Z,99926.27
2018-10-02T14:35:40.702Z,99924.05
2018-10-02T14:38:09.336Z,99923.06
2018-10-02T14:40:38.299Z,99926.97
2018-10-02T14:43:07.145Z,99917.74
2018-10-02T14:45:35.836Z,99921.23
2018-10-02T14:48:04.501Z,99915.55
2018-10-02T14:50:33.519Z,99922.47
2018-10-02T14:53:02.891Z,99933.89
2018-10-02T14:55:32.294Z,99927.17
2018-10-02T14:58:00.939Z,99932.36
2018-10-02T15:00:30.047Z,99951.50
2018-10-02T15:02:59.789Z,99942.69
2018-10-02T15:05:29.191Z,99939.58
2018-10-02T15:07:58.016Z,99925.97
2018-10-02T15:10:29.733Z,99929.42
2018-10-02T15:12:59.340Z,99928.13
2018-10-02T15:15:28.010Z,99924.54
2018-10-02T15:17:56.598Z,99930.11
2018-10-02T15:20:27.734Z,99761.52
2018-10-02T15:22:56.315Z,99925.96
2018-10-02T15:25:25.019Z,99932.47
2018-10-02T15:27:53.705Z,99931.00
2018-10-02T15:30:22.852Z,99933.97
2018-10-02T15:32:51.656Z,99937.80
2018-10-02T15:35:20.244Z,99936.48
2018-10-02T15:37:49.052Z,99937.80
2018-10-02T15:40:17.558Z,99946.10
2018-10-02T15:42:46.084Z,99951.35
2018-10-02T15:45:14.673Z,99943.44
2018-10-02T15:47:43.195Z,99941.12
2018-10-02T15:50:11.735Z,99934.94
2018-10-02T15:52:41.459Z,99934.47
2018-10-02T15:55:10.158Z,99937.11
2018-10-02T15:57:40.177Z,99940.16
2018-10-02T16:00:09.105Z,99940.09
2018-10-02T16:02:38.502Z,99932.97
2018-10-02T16:05:07.298Z,99939.41
2018-10-02T16:07:36.393Z,99939.33
2018-10-02T16:10:05.345Z,99937.03
2018-10-02T16:12:33.931Z,99925.06
2018-10-02T16:15:02.962Z,99923.72
2018-10-02T16:17:31.939Z,99932.86
2018-10-02T16:20:01.514Z,99942.09
2018-10-02T16:22:30.884Z,99961.86
2018-10-02T16:24:59.551Z,99938.95
2018-10-02T16:27:28.079Z,99937.23
2018-10-02T16:29:57.448Z,99939.87
2018-10-02T16:32:33.118Z,99949.92
2018-10-02T16:35:03.612Z,99950.42
2018-10-02T16:37:34.592Z,99960.14
2018-10-02T16:40:04.013Z,99960.14
2018-10-02T16:42:33.121Z,99960.48
2018-10-02T16:45:01.672Z,99962.69
2018-10-02T16:47:31.312Z,99956.91
2018-10-02T16:50:01.018Z,99884.76
2018-10-02T16:52:31.448Z,99976.29
2018-10-02T16:55:05.650Z,99966.64
2018-10-02T16:57:36.659Z,99968.78
2018-10-02T17:00:07.252Z,99975.35
2018-10-02T17:02:36.884Z,99990.31
2018-10-02T17:05:06.577Z,99982.34
2018-10-02T17:07:36.309Z,99990.31
2018-10-02T17:10:07.478Z,99996.50
2018-10-02T17:12:38.355Z,99999.11
2018-10-02T17:15:08.406Z,99997.38
2018-10-02T17:17:39.942Z,100010.14
2018-10-02T17:20:08.666Z,100016.33
2018-10-02T17:22:37.796Z,100014.25
2018-10-02T17:25:06.502Z,100016.95
2018-10-02T17:27:35.150Z,100019.27
2018-10-02T17:30:03.817Z,100031.17
2018-10-02T17:32:32.687Z,100035.22
2018-10-02T17:35:01.681Z,100026.50
2018-10-02T17:37:30.371Z,100035.83
2018-10-02T17:39:59.986Z,100039.84
2018-10-02T17:42:30.439Z,100043.87
2018-10-02T17:44:59.342Z,100048.86
2018-10-02T17:47:27.993Z,100052.92
2018-10-02T17:49:56.687Z,100053.05
2018-10-02T17:52:25.475Z,100060.66
2018-10-02T17:54:54.418Z,100063.43
2018-10-02T17:57:22.984Z,100060.38
2018-10-02T17:59:51.860Z,100062.58
2018-10-02T18:02:58.535Z,100064.80
2018-10-02T18:05:27.215Z,100062.66
2018-10-02T18:07:55.982Z,100063.92
2018-10-02T18:10:24.721Z,100068.39
2018-10-02T18:12:53.308Z,100067.56
2018-10-02T18:15:22.125Z,100071.11
2018-10-02T18:17:50.721Z,100072.92
2018-10-02T18:20:19.403Z,100068.55
2018-10-02T18:22:48.464Z,100078.73
2018-10-02T18:25:17.089Z,100081.03
2018-10-02T18:27:45.832Z,100080.63
2018-10-02T18:30:14.391Z,100082.52
2018-10-02T18:32:42.943Z,100093.16
2018-10-02T18:35:11.523Z,100088.41
2018-10-02T18:37:40.144Z,100098.64
2018-10-02T18:40:08.789Z,100095.24
2018-10-02T18:42:37.697Z,100106.70
2018-10-02T18:45:06.370Z,100101.09
2018-10-02T18:47:35.051Z,100102.93
2018-10-02T18:50:03.678Z,100106.97
2018-10-02T18:52:32.220Z,100108.77
2018-10-02T18:55:00.763Z,100106.98
2018-10-02T18:57:29.353Z,100098.66
2018-10-02T18:59:58.026Z,100101.61
2018-10-02T19:02:26.615Z,100098.95
2018-10-02T19:04:55.541Z,100099.28
2018-10-02T19:07:24.374Z,100098.31
2018-10-02T19:09:52.997Z,100104.39
2018-10-02T19:12:22.201Z,100108.27
2018-10-02T19:14:50.900Z,100110.04
2018-10-02T19:17:19.510Z,100107.77
2018-10-02T19:19:53.096Z,100112.11
2018-10-02T19:22:21.878Z,100114.82
2018-10-02T19:24:50.674Z,100113.99
2018-10-02T19:27:19.218Z,100120.62
2018-10-02T19:29:51.855Z,100119.38
2018-10-02T19:32:20.416Z,100121.18
2018-10-02T19:34:49.094Z,100122.09
2018-10-02T19:37:22.693Z,100124.41
2018-10-02T19:39:51.249Z,100130.20
2018-10-02T19:42:19.753Z,100139.91
2018-10-02T19:44:48.328Z,100149.20
2018-10-02T19:47:16.944Z,100142.63
2018-10-02T19:49:45.463Z,100139.58
2018-10-02T19:52:15.151Z,100134.38
2018-10-02T19:54:44.080Z,100137.44
2018-10-02T19:57:15.441Z,100139.67
2018-10-02T19:59:44.040Z,100134.45
2018-10-02T20:02:12.746Z,100145.48
2018-10-02T20:04:41.646Z,100145.98
2018-10-02T20:07:11.499Z,100147.38
2018-10-02T20:09:41.484Z,100135.15
2018-10-02T20:12:11.686Z,100131.20
2018-10-02T20:14:41.802Z,100138.31
2018-10-02T20:17:11.489Z,100135.27
2018-10-02T20:19:40.189Z,100140.06
2018-10-02T20:22:09.750Z,100142.27
2018-10-02T20:24:38.509Z,100143.95
2018-10-02T20:27:07.211Z,100153.16
2018-10-02T20:29:35.871Z,100149.14
2018-10-02T20:32:04.697Z,100149.11
2018-10-02T20:34:33.349Z,100145.98
2018-10-02T20:37:02.059Z,100145.98
2018-10-02T20:39:30.784Z,100152.58
2018-10-02T20:41:59.533Z,100160.88
2018-10-02T20:44:28.244Z,100152.93
2018-10-02T20:46:57.100Z,100154.66
2018-10-02T20:49:25.932Z,100157.28
2018-10-02T20:51:54.767Z,100156.84
2018-10-02T20:54:23.505Z,100164.28
2018-10-02T20:56:52.211Z,100163.84
2018-10-02T20:59:21.247Z,100158.53
2018-10-02T21:01:53.285Z,100165.56
2018-10-02T21:04:22.113Z,100159.35
2018-10-02T21:06:50.788Z,100151.00
2018-10-02T21:09:19.606Z,100154.00
2018-10-02T21:11:48.276Z,100147.41
2018-10-02T21:14:17.696Z,100152.68
2018-10-02T21:16:46.494Z,100152.68
2018-10-02T21:19:15.229Z,100150.46
2018-10-02T21:21:44.148Z,100148.23
2018-10-02T21:24:12.800Z,100156.13
2018-10-02T21:26:41.388Z,100152.58
2018-10-02T21:29:10.057Z,100152.09
2018-10-02T21:31:39.984Z,100156.45
2018-10-02T21:34:08.495Z,100155.13
2018-10-02T21:36:36.977Z,100153.33
2018-10-02T21:39:09.780Z,100149.30
2018-10-02T21:41:38.285Z,100158.98
2018-10-02T21:44:06.844Z,100159.89
2018-10-02T21:46:35.261Z,100160.40
2018-10-02T21:49:03.772Z,100159.91
2018-10-02T21:51:32.173Z,100158.17
2018-10-02T21:54:00.655Z,100157.77
2018-10-02T21:56:29.142Z,100156.45
2018-10-02T21:58:57.603Z,100152.92
2018-10-02T22:01:32.416Z,100152.49
2018-10-02T22:04:00.943Z,100155.61
2018-10-02T22:06:29.369Z,100152.11
2018-10-02T22:08:57.874Z,100151.74
2018-10-02T22:11:26.388Z,100146.49
2018-10-02T22:13:54.984Z,100146.92
2018-10-02T22:16:23.412Z,100152.66
2018-10-02T22:18:51.882Z,100161.88
2018-10-02T22:21:20.377Z,100158.78
2018-10-02T22:23:48.932Z,100143.20
2018-10-02T22:26:17.497Z,100156.70
2018-10-02T22:28:46.324Z,100154.98
2018-10-02T22:31:14.789Z,100146.73
2018-10-02T22:33:43.388Z,100151.59
2018-10-02T22:36:11.852Z,100140.72
2018-10-02T22:38:40.351Z,100140.87
2018-10-02T22:41:08.820Z,100132.17
2018-10-02T22:43:37.300Z,100140.20
2018-10-02T22:46:06.343Z,100132.40
2018-10-02T22:48:34.818Z,100130.73
2018-10-02T22:51:03.261Z,100130.81
2018-10-02T22:53:31.736Z,100131.36
2018-10-02T22:56:00.320Z,100120.05
2018-10-02T22:58:28.878Z,100128.37
2018-10-02T23:00:57.356Z,100135.01
2018-10-02T23:03:25.873Z,100135.03
2018-10-02T23:05:54.874Z,100145.19
2018-10-02T23:08:23.436Z,100150.05
2018-10-02T23:10:51.965Z,100157.95
2018-10-02T23:13:20.446Z,100158.78
2018-10-02T23:15:49.037Z,100152.61
2018-10-02T23:18:17.589Z,100150.32
2018-10-02T23:20:46.165Z,100152.44
2018-10-02T23:23:14.771Z,100151.05
2018-10-02T23:25:43.355Z,100148.77
2018-10-02T23:28:11.972Z,100155.73
2018-10-02T23:30:40.779Z,100146.89
2018-10-02T23:33:09.395Z,100152.13
2018-10-02T23:35:37.918Z,100162.61
2018-10-02T23:38:06.632Z,100158.64
2018-10-02T23:40:35.423Z,100150.25
2018-10-02T23:43:04.059Z,100151.99
2018-10-02T23:45:32.804Z,100159.83
2018-10-02T23:48:01.497Z,100163.78
2018-10-02T23:50:30.019Z,100162.87
2018-10-02T23:52:58.710Z,100162.80
2018-10-02T23:55:27.394Z,100172.42
2018-10-02T23:57:55.928Z,100171.51
